sensor_id;sensor_type;location;lat;lon;timestamp;P1;durP1;ratioP1;P2;durP2;ratioP2
47912;SDS011;33676;51.006;17.180;2023-04-25T00:01:07;1.80;;;1.60;;
47912;SDS011;33676;51.006;17.180;2023-04-25T00:03:37;1.90;;;1.20;;
47912;SDS011;33676;51.006;17.180;2023-04-25T00:06:06;1.30;;;1.30;;
47912;SDS011;33676;51.006;17.180;2023-04-25T00:08:35;1.60;;;1.50;;
47912;SDS011;33676;51.006;17.180;2023-04-25T00:11:03;2.00;;;1.70;;
47912;SDS011;33676;51.006;17.180;2023-04-25T00:13:32;1.90;;;1.40;;
47912;SDS011;33676;51.006;17.180;2023-04-25T00:16:01;1.10;;;1.10;;
47912;SDS011;33676;51.006;17.180;2023-04-25T00:18:30;6.40;;;1.60;;
47912;SDS011;33676;51.006;17.180;2023-04-25T00:21:01;1.00;;;1.00;;
47912;SDS011;33676;51.006;17.180;2023-04-25T00:23:30;1.20;;;1.20;;
47912;SDS011;33676;51.006;17.180;2023-04-25T00:25:59;1.10;;;1.00;;
47912;SDS011;33676;51.006;17.180;2023-04-25T00:28:27;1.50;;;1.40;;
47912;SDS011;33676;51.006;17.180;2023-04-25T00:30:55;1.70;;;1.60;;
47912;SDS011;33676;51.006;17.180;2023-04-25T00:33:24;1.30;;;1.20;;
47912;SDS011;33676;51.006;17.180;2023-04-25T00:35:52;1.90;;;1.60;;
47912;SDS011;33676;51.006;17.180;2023-04-25T00:38:21;4.10;;;1.80;;
47912;SDS011;33676;51.006;17.180;2023-04-25T00:40:50;1.30;;;1.30;;
47912;SDS011;33676;51.006;17.180;2023-04-25T00:43:18;1.60;;;1.30;;
47912;SDS011;33676;51.006;17.180;2023-04-25T00:45:47;1.60;;;1.50;;
47912;SDS011;33676;51.006;17.180;2023-04-25T00:48:21;1.10;;;1.10;;
47912;SDS011;33676;51.006;17.180;2023-04-25T00:50:57;1.60;;;1.50;;
47912;SDS011;33676;51.006;17.180;2023-04-25T00:53:27;0.90;;;0.90;;
47912;SDS011;33676;51.006;17.180;2023-04-25T00:55:57;1.70;;;1.60;;
47912;SDS011;33676;51.006;17.180;2023-04-25T00:58:25;1.10;;;1.10;;
47912;SDS011;33676;51.006;17.180;2023-04-25T01:00:54;1.30;;;1.20;;
47912;SDS011;33676;51.006;17.180;2023-04-25T01:03:24;1.30;;;1.30;;
47912;SDS011;33676;51.006;17.180;2023-04-25T01:05:52;1.40;;;1.30;;
47912;SDS011;33676;51.006;17.180;2023-04-25T01:08:23;1.50;;;1.50;;
47912;SDS011;33676;51.006;17.180;2023-04-25T01:10:53;1.70;;;1.60;;
47912;SDS011;33676;51.006;17.180;2023-04-25T01:13:22;2.30;;;2.00;;
47912;SDS011;33676;51.006;17.180;2023-04-25T01:15:50;2.50;;;1.70;;
47912;SDS011;33676;51.006;17.180;2023-04-25T01:18:19;2.10;;;1.70;;
47912;SDS011;33676;51.006;17.180;2023-04-25T01:20:50;2.00;;;1.80;;
47912;SDS011;33676;51.006;17.180;2023-04-25T01:23:20;2.30;;;2.10;;
47912;SDS011;33676;51.006;17.180;2023-04-25T01:25:50;2.30;;;2.00;;
47912;SDS011;33676;51.006;17.180;2023-04-25T01:28:19;3.10;;;2.60;;
47912;SDS011;33676;51.006;17.180;2023-04-25T01:30:48;2.90;;;2.70;;
47912;SDS011;33676;51.006;17.180;2023-04-25T01:33:17;2.60;;;2.30;;
47912;SDS011;33676;51.006;17.180;2023-04-25T01:35:47;2.30;;;2.10;;
47912;SDS011;33676;51.006;17.180;2023-04-25T01:38:15;2.80;;;2.10;;
47912;SDS011;33676;51.006;17.180;2023-04-25T01:40:45;5.10;;;2.60;;
47912;SDS011;33676;51.006;17.180;2023-04-25T01:43:15;3.70;;;2.80;;
47912;SDS011;33676;51.006;17.180;2023-04-25T01:45:43;2.10;;;2.00;;
47912;SDS011;33676;51.006;17.180;2023-04-25T01:48:13;3.60;;;3.20;;
47912;SDS011;33676;51.006;17.180;2023-04-25T01:50:43;2.80;;;2.60;;
47912;SDS011;33676;51.006;17.180;2023-04-25T01:53:13;2.10;;;2.00;;
47912;SDS011;33676;51.006;17.180;2023-04-25T01:55:42;2.90;;;2.70;;
47912;SDS011;33676;51.006;17.180;2023-04-25T01:58:11;3.40;;;3.10;;
47912;SDS011;33676;51.006;17.180;2023-04-25T02:00:41;2.90;;;2.60;;
47912;SDS011;33676;51.006;17.180;2023-04-25T02:03:09;2.60;;;2.40;;
47912;SDS011;33676;51.006;17.180;2023-04-25T02:05:38;3.20;;;2.90;;
47912;SDS011;33676;51.006;17.180;2023-04-25T02:08:08;3.30;;;2.50;;
47912;SDS011;33676;51.006;17.180;2023-04-25T02:10:37;2.30;;;2.20;;
47912;SDS011;33676;51.006;17.180;2023-04-25T02:13:05;2.80;;;2.60;;
47912;SDS011;33676;51.006;17.180;2023-04-25T02:15:34;4.10;;;3.10;;
47912;SDS011;33676;51.006;17.180;2023-04-25T02:18:02;3.20;;;2.70;;
47912;SDS011;33676;51.006;17.180;2023-04-25T02:20:32;3.00;;;2.70;;
47912;SDS011;33676;51.006;17.180;2023-04-25T02:23:00;2.90;;;2.70;;
47912;SDS011;33676;51.006;17.180;2023-04-25T02:25:29;4.10;;;3.30;;
47912;SDS011;33676;51.006;17.180;2023-04-25T02:27:57;7.90;;;3.20;;
47912;SDS011;33676;51.006;17.180;2023-04-25T02:30:26;2.80;;;2.60;;
47912;SDS011;33676;51.006;17.180;2023-04-25T02:32:54;4.00;;;3.60;;
47912;SDS011;33676;51.006;17.180;2023-04-25T02:35:23;3.50;;;3.30;;
47912;SDS011;33676;51.006;17.180;2023-04-25T02:37:52;6.10;;;3.90;;
47912;SDS011;33676;51.006;17.180;2023-04-25T02:40:20;4.20;;;3.80;;
47912;SDS011;33676;51.006;17.180;2023-04-25T02:42:49;4.00;;;3.70;;
47912;SDS011;33676;51.006;17.180;2023-04-25T02:45:17;4.30;;;4.00;;
47912;SDS011;33676;51.006;17.180;2023-04-25T02:47:45;4.10;;;3.80;;
47912;SDS011;33676;51.006;17.180;2023-04-25T02:50:14;3.70;;;3.40;;
47912;SDS011;33676;51.006;17.180;2023-04-25T02:52:42;4.70;;;4.30;;
47912;SDS011;33676;51.006;17.180;2023-04-25T02:55:10;4.70;;;3.90;;
47912;SDS011;33676;51.006;17.180;2023-04-25T02:57:40;3.60;;;3.30;;
47912;SDS011;33676;51.006;17.180;2023-04-25T03:00:09;4.00;;;3.70;;
47912;SDS011;33676;51.006;17.180;2023-04-25T03:02:39;4.90;;;4.40;;
47912;SDS011;33676;51.006;17.180;2023-04-25T03:05:08;4.50;;;4.10;;
47912;SDS011;33676;51.006;17.180;2023-04-25T03:07:37;5.20;;;4.60;;
47912;SDS011;33676;51.006;17.180;2023-04-25T03:10:07;5.80;;;4.40;;
47912;SDS011;33676;51.006;17.180;2023-04-25T03:12:36;4.50;;;4.10;;
47912;SDS011;33676;51.006;17.180;2023-04-25T03:15:05;5.30;;;4.90;;
47912;SDS011;33676;51.006;17.180;2023-04-25T03:17:34;6.00;;;5.50;;
47912;SDS011;33676;51.006;17.180;2023-04-25T03:20:04;5.50;;;4.80;;
47912;SDS011;33676;51.006;17.180;2023-04-25T03:22:33;5.40;;;4.40;;
47912;SDS011;33676;51.006;17.180;2023-04-25T03:25:02;5.20;;;4.80;;
47912;SDS011;33676;51.006;17.180;2023-04-25T03:27:30;4.90;;;4.30;;
47912;SDS011;33676;51.006;17.180;2023-04-25T03:29:59;4.60;;;4.20;;
47912;SDS011;33676;51.006;17.180;2023-04-25T03:32:27;8.10;;;5.70;;
47912;SDS011;33676;51.006;17.180;2023-04-25T03:34:56;5.90;;;5.30;;
47912;SDS011;33676;51.006;17.180;2023-04-25T03:37:24;5.60;;;5.10;;
47912;SDS011;33676;51.006;17.180;2023-04-25T03:39:52;6.20;;;5.20;;
47912;SDS011;33676;51.006;17.180;2023-04-25T03:42:22;5.80;;;5.10;;
47912;SDS011;33676;51.006;17.180;2023-04-25T03:44:53;5.30;;;4.10;;
47912;SDS011;33676;51.006;17.180;2023-04-25T03:47:22;6.30;;;4.90;;
47912;SDS011;33676;51.006;17.180;2023-04-25T03:49:52;5.60;;;4.70;;
47912;SDS011;33676;51.006;17.180;2023-04-25T03:52:20;5.20;;;4.50;;
47912;SDS011;33676;51.006;17.180;2023-04-25T03:54:48;5.90;;;4.00;;
47912;SDS011;33676;51.006;17.180;2023-04-25T03:57:17;4.30;;;4.00;;
47912;SDS011;33676;51.006;17.180;2023-04-25T03:59:45;4.40;;;4.00;;
47912;SDS011;33676;51.006;17.180;2023-04-25T04:02:13;4.90;;;4.40;;
47912;SDS011;33676;51.006;17.180;2023-04-25T04:04:42;5.40;;;4.60;;
47912;SDS011;33676;51.006;17.180;2023-04-25T04:07:12;5.30;;;4.70;;
47912;SDS011;33676;51.006;17.180;2023-04-25T04:09:41;7.10;;;4.60;;
47912;SDS011;33676;51.006;17.180;2023-04-25T04:12:09;5.70;;;5.20;;
47912;SDS011;33676;51.006;17.180;2023-04-25T04:14:38;6.80;;;4.30;;
47912;SDS011;33676;51.006;17.180;2023-04-25T04:17:06;5.60;;;4.90;;
47912;SDS011;33676;51.006;17.180;2023-04-25T04:19:35;5.50;;;5.00;;
47912;SDS011;33676;51.006;17.180;2023-04-25T04:22:04;5.10;;;4.60;;
47912;SDS011;33676;51.006;17.180;2023-04-25T04:24:32;4.50;;;4.20;;
47912;SDS011;33676;51.006;17.180;2023-04-25T04:27:01;5.60;;;5.10;;
47912;SDS011;33676;51.006;17.180;2023-04-25T04:29:29;5.60;;;5.10;;
47912;SDS011;33676;51.006;17.180;2023-04-25T04:31:58;5.70;;;5.10;;
47912;SDS011;33676;51.006;17.180;2023-04-25T04:34:26;7.20;;;5.80;;
47912;SDS011;33676;51.006;17.180;2023-04-25T04:36:55;7.00;;;6.10;;
47912;SDS011;33676;51.006;17.180;2023-04-25T04:39:24;5.50;;;5.00;;
47912;SDS011;33676;51.006;17.180;2023-04-25T04:42:01;5.30;;;4.80;;
47912;SDS011;33676;51.006;17.180;2023-04-25T04:44:31;5.80;;;5.30;;
47912;SDS011;33676;51.006;17.180;2023-04-25T04:47:07;5.00;;;4.60;;
47912;SDS011;33676;51.006;17.180;2023-04-25T04:49:36;5.40;;;4.90;;
47912;SDS011;33676;51.006;17.180;2023-04-25T04:52:10;5.00;;;4.60;;
47912;SDS011;33676;51.006;17.180;2023-04-25T04:54:44;5.20;;;4.30;;
47912;SDS011;33676;51.006;17.180;2023-04-25T04:57:15;6.20;;;5.60;;
47912;SDS011;33676;51.006;17.180;2023-04-25T05:00:05;5.40;;;4.90;;
47912;SDS011;33676;51.006;17.180;2023-04-25T05:02:58;6.20;;;5.60;;
47912;SDS011;33676;51.006;17.180;2023-04-25T05:05:45;6.50;;;5.40;;
47912;SDS011;33676;51.006;17.180;2023-04-25T05:08:15;5.30;;;4.80;;
47912;SDS011;33676;51.006;17.180;2023-04-25T05:10:46;6.10;;;5.50;;
47912;SDS011;33676;51.006;17.180;2023-04-25T05:13:20;5.30;;;4.80;;
47912;SDS011;33676;51.006;17.180;2023-04-25T05:16:17;5.70;;;5.10;;
47912;SDS011;33676;51.006;17.180;2023-04-25T05:19:10;6.80;;;5.30;;
47912;SDS011;33676;51.006;17.180;2023-04-25T05:21:59;5.90;;;5.40;;
47912;SDS011;33676;51.006;17.180;2023-04-25T05:24:48;5.90;;;5.20;;
47912;SDS011;33676;51.006;17.180;2023-04-25T05:27:24;6.80;;;6.00;;
47912;SDS011;33676;51.006;17.180;2023-04-25T05:30:14;6.10;;;5.60;;
47912;SDS011;33676;51.006;17.180;2023-04-25T05:32:52;5.80;;;5.30;;
47912;SDS011;33676;51.006;17.180;2023-04-25T05:35:45;7.80;;;5.20;;
47912;SDS011;33676;51.006;17.180;2023-04-25T05:38:34;8.20;;;5.10;;
47912;SDS011;33676;51.006;17.180;2023-04-25T05:41:06;13.20;;;5.30;;
47912;SDS011;33676;51.006;17.180;2023-04-25T05:43:37;6.90;;;4.70;;
47912;SDS011;33676;51.006;17.180;2023-04-25T05:46:16;5.90;;;5.40;;
47912;SDS011;33676;51.006;17.180;2023-04-25T05:48:55;7.80;;;5.10;;
47912;SDS011;33676;51.006;17.180;2023-04-25T05:51:35;6.30;;;5.70;;
47912;SDS011;33676;51.006;17.180;2023-04-25T05:54:10;6.80;;;5.50;;
47912;SDS011;33676;51.006;17.180;2023-04-25T05:56:42;5.80;;;5.20;;
47912;SDS011;33676;51.006;17.180;2023-04-25T05:59:14;4.90;;;4.50;;
47912;SDS011;33676;51.006;17.180;2023-04-25T06:01:45;6.70;;;4.20;;
47912;SDS011;33676;51.006;17.180;2023-04-25T06:04:14;6.30;;;5.30;;
47912;SDS011;33676;51.006;17.180;2023-04-25T06:06:43;7.00;;;5.40;;
47912;SDS011;33676;51.006;17.180;2023-04-25T06:09:14;5.10;;;4.60;;
47912;SDS011;33676;51.006;17.180;2023-04-25T06:11:43;4.80;;;4.40;;
47912;SDS011;33676;51.006;17.180;2023-04-25T06:14:11;6.00;;;5.50;;
47912;SDS011;33676;51.006;17.180;2023-04-25T06:16:40;5.60;;;4.40;;
47912;SDS011;33676;51.006;17.180;2023-04-25T06:19:08;5.40;;;4.90;;
47912;SDS011;33676;51.006;17.180;2023-04-25T06:21:39;5.30;;;4.80;;
47912;SDS011;33676;51.006;17.180;2023-04-25T06:24:07;5.20;;;4.80;;
47912;SDS011;33676;51.006;17.180;2023-04-25T06:26:36;4.90;;;4.50;;
47912;SDS011;33676;51.006;17.180;2023-04-25T06:29:04;6.80;;;4.90;;
47912;SDS011;33676;51.006;17.180;2023-04-25T06:31:33;4.40;;;4.10;;
47912;SDS011;33676;51.006;17.180;2023-04-25T06:34:02;5.10;;;4.60;;
47912;SDS011;33676;51.006;17.180;2023-04-25T06:36:30;7.70;;;4.90;;
47912;SDS011;33676;51.006;17.180;2023-04-25T06:38:58;5.70;;;4.40;;
47912;SDS011;33676;51.006;17.180;2023-04-25T06:41:27;4.80;;;4.30;;
47912;SDS011;33676;51.006;17.180;2023-04-25T06:43:55;5.50;;;5.00;;
47912;SDS011;33676;51.006;17.180;2023-04-25T06:46:24;5.30;;;4.90;;
47912;SDS011;33676;51.006;17.180;2023-04-25T06:49:10;5.60;;;4.00;;
47912;SDS011;33676;51.006;17.180;2023-04-25T06:51:44;4.60;;;4.20;;
47912;SDS011;33676;51.006;17.180;2023-04-25T06:54:15;6.70;;;3.70;;
47912;SDS011;33676;51.006;17.180;2023-04-25T06:56:50;4.00;;;3.60;;
47912;SDS011;33676;51.006;17.180;2023-04-25T07:00:06;4.00;;;3.60;;
47912;SDS011;33676;51.006;17.180;2023-04-25T07:02:39;10.00;;;4.90;;
47912;SDS011;33676;51.006;17.180;2023-04-25T07:05:08;4.50;;;4.10;;
47912;SDS011;33676;51.006;17.180;2023-04-25T07:07:37;4.80;;;4.10;;
47912;SDS011;33676;51.006;17.180;2023-04-25T07:10:10;6.00;;;3.60;;
47912;SDS011;33676;51.006;17.180;2023-04-25T07:12:38;7.80;;;4.10;;
47912;SDS011;33676;51.006;17.180;2023-04-25T07:15:13;5.40;;;3.70;;
47912;SDS011;33676;51.006;17.180;2023-04-25T07:17:42;4.40;;;3.30;;
47912;SDS011;33676;51.006;17.180;2023-04-25T07:20:12;4.40;;;3.20;;
47912;SDS011;33676;51.006;17.180;2023-04-25T07:22:45;8.00;;;3.90;;
47912;SDS011;33676;51.006;17.180;2023-04-25T07:25:14;4.70;;;3.20;;
47912;SDS011;33676;51.006;17.180;2023-04-25T07:27:42;4.70;;;4.00;;
47912;SDS011;33676;51.006;17.180;2023-04-25T07:30:13;3.40;;;3.10;;
47912;SDS011;33676;51.006;17.180;2023-04-25T07:32:42;5.90;;;2.90;;
47912;SDS011;33676;51.006;17.180;2023-04-25T07:35:12;3.80;;;2.90;;
47912;SDS011;33676;51.006;17.180;2023-04-25T07:37:41;5.70;;;3.50;;
47912;SDS011;33676;51.006;17.180;2023-04-25T07:40:09;7.70;;;3.60;;
47912;SDS011;33676;51.006;17.180;2023-04-25T07:42:38;4.10;;;3.50;;
47912;SDS011;33676;51.006;17.180;2023-04-25T07:45:08;3.50;;;3.20;;
47912;SDS011;33676;51.006;17.180;2023-04-25T07:47:37;7.00;;;4.10;;
47912;SDS011;33676;51.006;17.180;2023-04-25T07:50:07;3.50;;;3.10;;
47912;SDS011;33676;51.006;17.180;2023-04-25T07:52:35;5.00;;;3.00;;
47912;SDS011;33676;51.006;17.180;2023-04-25T07:55:04;4.60;;;3.30;;
47912;SDS011;33676;51.006;17.180;2023-04-25T07:57:33;6.10;;;3.00;;
47912;SDS011;33676;51.006;17.180;2023-04-25T08:00:01;4.70;;;3.80;;
47912;SDS011;33676;51.006;17.180;2023-04-25T08:02:30;3.40;;;3.10;;
47912;SDS011;33676;51.006;17.180;2023-04-25T08:04:59;5.10;;;3.40;;
47912;SDS011;33676;51.006;17.180;2023-04-25T08:07:28;5.00;;;4.10;;
47912;SDS011;33676;51.006;17.180;2023-04-25T08:09:56;6.60;;;3.80;;
47912;SDS011;33676;51.006;17.180;2023-04-25T08:12:25;6.10;;;4.40;;
47912;SDS011;33676;51.006;17.180;2023-04-25T08:14:55;5.50;;;3.90;;
47912;SDS011;33676;51.006;17.180;2023-04-25T08:17:23;4.10;;;3.80;;
47912;SDS011;33676;51.006;17.180;2023-04-25T08:19:52;4.30;;;3.90;;
47912;SDS011;33676;51.006;17.180;2023-04-25T08:22:20;4.10;;;3.70;;
47912;SDS011;33676;51.006;17.180;2023-04-25T08:24:52;4.60;;;4.30;;
47912;SDS011;33676;51.006;17.180;2023-04-25T08:27:22;8.30;;;5.40;;
47912;SDS011;33676;51.006;17.180;2023-04-25T08:29:51;5.50;;;4.30;;
47912;SDS011;33676;51.006;17.180;2023-04-25T08:32:21;5.80;;;5.20;;
47912;SDS011;33676;51.006;17.180;2023-04-25T08:34:50;4.80;;;4.40;;
47912;SDS011;33676;51.006;17.180;2023-04-25T08:37:22;5.40;;;4.60;;
47912;SDS011;33676;51.006;17.180;2023-04-25T08:39:50;7.20;;;4.60;;
47912;SDS011;33676;51.006;17.180;2023-04-25T08:42:20;7.70;;;5.90;;
47912;SDS011;33676;51.006;17.180;2023-04-25T08:44:52;4.80;;;4.40;;
47912;SDS011;33676;51.006;17.180;2023-04-25T08:47:23;10.50;;;5.30;;
47912;SDS011;33676;51.006;17.180;2023-04-25T08:49:54;5.30;;;4.70;;
47912;SDS011;33676;51.006;17.180;2023-04-25T08:52:23;5.20;;;4.80;;
47912;SDS011;33676;51.006;17.180;2023-04-25T08:54:55;8.90;;;5.20;;
47912;SDS011;33676;51.006;17.180;2023-04-25T08:57:25;7.80;;;5.80;;
47912;SDS011;33676;51.006;17.180;2023-04-25T08:59:54;5.80;;;5.30;;
47912;SDS011;33676;51.006;17.180;2023-04-25T09:02:24;6.20;;;5.30;;
47912;SDS011;33676;51.006;17.180;2023-04-25T09:04:54;5.50;;;5.00;;
47912;SDS011;33676;51.006;17.180;2023-04-25T09:07:23;6.30;;;5.80;;
47912;SDS011;33676;51.006;17.180;2023-04-25T09:09:54;6.20;;;5.70;;
47912;SDS011;33676;51.006;17.180;2023-04-25T09:12:22;10.40;;;6.50;;
47912;SDS011;33676;51.006;17.180;2023-04-25T09:15:03;6.20;;;5.60;;
47912;SDS011;33676;51.006;17.180;2023-04-25T09:17:33;5.90;;;5.30;;
47912;SDS011;33676;51.006;17.180;2023-04-25T09:20:09;6.10;;;5.60;;
47912;SDS011;33676;51.006;17.180;2023-04-25T09:22:39;7.30;;;6.70;;
47912;SDS011;33676;51.006;17.180;2023-04-25T09:25:11;7.60;;;5.90;;
47912;SDS011;33676;51.006;17.180;2023-04-25T09:27:52;5.30;;;4.80;;
47912;SDS011;33676;51.006;17.180;2023-04-25T09:30:29;6.40;;;5.10;;
47912;SDS011;33676;51.006;17.180;2023-04-25T09:33:07;5.00;;;4.70;;
47912;SDS011;33676;51.006;17.180;2023-04-25T09:35:39;4.90;;;4.50;;
47912;SDS011;33676;51.006;17.180;2023-04-25T09:38:10;5.10;;;4.60;;
47912;SDS011;33676;51.006;17.180;2023-04-25T09:40:44;4.30;;;3.90;;
47912;SDS011;33676;51.006;17.180;2023-04-25T09:43:21;5.70;;;4.80;;
47912;SDS011;33676;51.006;17.180;2023-04-25T09:45:53;4.30;;;4.00;;
47912;SDS011;33676;51.006;17.180;2023-04-25T09:48:27;5.00;;;4.40;;
47912;SDS011;33676;51.006;17.180;2023-04-25T09:51:07;4.50;;;4.10;;
47912;SDS011;33676;51.006;17.180;2023-04-25T09:53:37;5.10;;;3.70;;
47912;SDS011;33676;51.006;17.180;2023-04-25T09:56:09;3.90;;;3.60;;
47912;SDS011;33676;51.006;17.180;2023-04-25T09:58:40;4.80;;;3.90;;
47912;SDS011;33676;51.006;17.180;2023-04-25T10:01:10;3.90;;;3.60;;
47912;SDS011;33676;51.006;17.180;2023-04-25T10:03:40;4.40;;;4.10;;
47912;SDS011;33676;51.006;17.180;2023-04-25T10:06:16;4.90;;;3.80;;
47912;SDS011;33676;51.006;17.180;2023-04-25T10:08:49;3.80;;;3.20;;
47912;SDS011;33676;51.006;17.180;2023-04-25T10:11:19;3.90;;;3.50;;
47912;SDS011;33676;51.006;17.180;2023-04-25T10:13:51;3.60;;;3.30;;
47912;SDS011;33676;51.006;17.180;2023-04-25T10:16:20;4.10;;;3.70;;
47912;SDS011;33676;51.006;17.180;2023-04-25T10:18:49;5.50;;;4.00;;
47912;SDS011;33676;51.006;17.180;2023-04-25T10:21:18;3.50;;;3.20;;
47912;SDS011;33676;51.006;17.180;2023-04-25T10:23:49;4.30;;;3.90;;
47912;SDS011;33676;51.006;17.180;2023-04-25T10:26:19;3.90;;;3.60;;
47912;SDS011;33676;51.006;17.180;2023-04-25T10:28:58;4.00;;;3.60;;
47912;SDS011;33676;51.006;17.180;2023-04-25T10:31:31;5.20;;;4.70;;
47912;SDS011;33676;51.006;17.180;2023-04-25T10:34:00;4.70;;;3.80;;
47912;SDS011;33676;51.006;17.180;2023-04-25T10:36:32;4.80;;;4.10;;
47912;SDS011;33676;51.006;17.180;2023-04-25T10:39:09;5.90;;;5.20;;
47912;SDS011;33676;51.006;17.180;2023-04-25T10:41:48;4.70;;;4.30;;
47912;SDS011;33676;51.006;17.180;2023-04-25T10:44:31;5.90;;;4.30;;
47912;SDS011;33676;51.006;17.180;2023-04-25T10:47:01;4.60;;;4.00;;
47912;SDS011;33676;51.006;17.180;2023-04-25T10:49:32;4.10;;;3.80;;
47912;SDS011;33676;51.006;17.180;2023-04-25T10:54:46;5.80;;;5.30;;
47912;SDS011;33676;51.006;17.180;2023-04-25T10:57:36;5.90;;;4.80;;
47912;SDS011;33676;51.006;17.180;2023-04-25T11:00:16;4.70;;;4.30;;
47912;SDS011;33676;51.006;17.180;2023-04-25T11:02:59;3.90;;;3.60;;
47912;SDS011;33676;51.006;17.180;2023-04-25T11:05:33;4.70;;;3.90;;
47912;SDS011;33676;51.006;17.180;2023-04-25T11:08:42;3.30;;;2.90;;
47912;SDS011;33676;51.006;17.180;2023-04-25T11:11:17;4.00;;;3.70;;
47912;SDS011;33676;51.006;17.180;2023-04-25T11:13:49;3.50;;;3.30;;
47912;SDS011;33676;51.006;17.180;2023-04-25T11:16:18;3.20;;;2.90;;
47912;SDS011;33676;51.006;17.180;2023-04-25T11:19:06;3.40;;;3.10;;
47912;SDS011;33676;51.006;17.180;2023-04-25T11:21:35;3.30;;;2.80;;
47912;SDS011;33676;51.006;17.180;2023-04-25T11:24:04;3.70;;;3.30;;
47912;SDS011;33676;51.006;17.180;2023-04-25T11:26:32;4.10;;;3.70;;
47912;SDS011;33676;51.006;17.180;2023-04-25T11:29:01;4.10;;;3.30;;
47912;SDS011;33676;51.006;17.180;2023-04-25T11:31:29;3.70;;;3.40;;
47912;SDS011;33676;51.006;17.180;2023-04-25T11:33:58;4.30;;;4.00;;
47912;SDS011;33676;51.006;17.180;2023-04-25T11:36:28;3.50;;;3.10;;
47912;SDS011;33676;51.006;17.180;2023-04-25T11:38:57;3.50;;;3.20;;
47912;SDS011;33676;51.006;17.180;2023-04-25T11:41:25;4.30;;;2.80;;
47912;SDS011;33676;51.006;17.180;2023-04-25T11:43:56;4.00;;;3.50;;
47912;SDS011;33676;51.006;17.180;2023-04-25T11:46:24;4.60;;;3.20;;
47912;SDS011;33676;51.006;17.180;2023-04-25T11:48:53;3.60;;;3.30;;
47912;SDS011;33676;51.006;17.180;2023-04-25T11:51:23;4.10;;;2.90;;
47912;SDS011;33676;51.006;17.180;2023-04-25T11:53:52;2.80;;;2.40;;
47912;SDS011;33676;51.006;17.180;2023-04-25T11:56:21;6.00;;;2.30;;
47912;SDS011;33676;51.006;17.180;2023-04-25T11:58:58;4.80;;;2.10;;
47912;SDS011;33676;51.006;17.180;2023-04-25T12:01:30;2.50;;;2.00;;
47912;SDS011;33676;51.006;17.180;2023-04-25T12:04:18;3.80;;;2.10;;
47912;SDS011;33676;51.006;17.180;2023-04-25T12:06:50;1.80;;;1.70;;
47912;SDS011;33676;51.006;17.180;2023-04-25T12:09:30;2.80;;;1.90;;
47912;SDS011;33676;51.006;17.180;2023-04-25T12:12:00;3.10;;;2.20;;
47912;SDS011;33676;51.006;17.180;2023-04-25T12:14:34;4.00;;;1.70;;
47912;SDS011;33676;51.006;17.180;2023-04-25T12:17:04;3.00;;;2.00;;
47912;SDS011;33676;51.006;17.180;2023-04-25T12:19:37;1.80;;;1.70;;
47912;SDS011;33676;51.006;17.180;2023-04-25T12:22:20;2.30;;;2.10;;
47912;SDS011;33676;51.006;17.180;2023-04-25T12:24:50;3.00;;;2.00;;
47912;SDS011;33676;51.006;17.180;2023-04-25T12:27:33;1.80;;;1.60;;
47912;SDS011;33676;51.006;17.180;2023-04-25T12:30:03;2.30;;;2.10;;
47912;SDS011;33676;51.006;17.180;2023-04-25T12:32:33;2.60;;;1.90;;
47912;SDS011;33676;51.006;17.180;2023-04-25T12:35:01;2.20;;;1.90;;
47912;SDS011;33676;51.006;17.180;2023-04-25T12:37:29;2.30;;;1.60;;
47912;SDS011;33676;51.006;17.180;2023-04-25T12:39:58;6.30;;;1.90;;
47912;SDS011;33676;51.006;17.180;2023-04-25T12:42:27;2.20;;;1.80;;
47912;SDS011;33676;51.006;17.180;2023-04-25T12:44:55;2.40;;;1.90;;
47912;SDS011;33676;51.006;17.180;2023-04-25T12:47:24;3.40;;;2.00;;
47912;SDS011;33676;51.006;17.180;2023-04-25T12:49:53;4.30;;;2.20;;
47912;SDS011;33676;51.006;17.180;2023-04-25T12:52:21;2.00;;;1.90;;
47912;SDS011;33676;51.006;17.180;2023-04-25T12:54:50;1.70;;;1.40;;
47912;SDS011;33676;51.006;17.180;2023-04-25T12:57:28;3.70;;;1.80;;
47912;SDS011;33676;51.006;17.180;2023-04-25T12:59:57;2.30;;;1.90;;
47912;SDS011;33676;51.006;17.180;2023-04-25T13:02:26;2.40;;;2.20;;
47912;SDS011;33676;51.006;17.180;2023-04-25T13:04:55;2.30;;;2.10;;
47912;SDS011;33676;51.006;17.180;2023-04-25T13:07:24;2.30;;;2.20;;
47912;SDS011;33676;51.006;17.180;2023-04-25T13:09:53;1.90;;;1.80;;
47912;SDS011;33676;51.006;17.180;2023-04-25T13:12:23;2.60;;;1.50;;
47912;SDS011;33676;51.006;17.180;2023-04-25T13:14:52;2.40;;;2.20;;
47912;SDS011;33676;51.006;17.180;2023-04-25T13:17:24;1.90;;;1.80;;
47912;SDS011;33676;51.006;17.180;2023-04-25T13:19:56;2.50;;;1.60;;
47912;SDS011;33676;51.006;17.180;2023-04-25T13:22:28;2.00;;;1.80;;
47912;SDS011;33676;51.006;17.180;2023-04-25T13:24:59;2.80;;;2.60;;
47912;SDS011;33676;51.006;17.180;2023-04-25T13:27:31;2.50;;;2.10;;
47912;SDS011;33676;51.006;17.180;2023-04-25T13:30:09;4.90;;;2.00;;
47912;SDS011;33676;51.006;17.180;2023-04-25T13:32:46;3.60;;;1.60;;
47912;SDS011;33676;51.006;17.180;2023-04-25T13:35:18;1.90;;;1.60;;
47912;SDS011;33676;51.006;17.180;2023-04-25T13:37:48;1.70;;;1.60;;
47912;SDS011;33676;51.006;17.180;2023-04-25T13:40:17;1.60;;;1.50;;
47912;SDS011;33676;51.006;17.180;2023-04-25T13:42:45;1.30;;;1.20;;
47912;SDS011;33676;51.006;17.180;2023-04-25T13:45:16;3.00;;;1.40;;
47912;SDS011;33676;51.006;17.180;2023-04-25T13:47:45;1.80;;;1.70;;
47912;SDS011;33676;51.006;17.180;2023-04-25T13:50:15;1.80;;;1.60;;
47912;SDS011;33676;51.006;17.180;2023-04-25T13:52:45;1.50;;;1.40;;
47912;SDS011;33676;51.006;17.180;2023-04-25T13:55:15;2.00;;;1.90;;
47912;SDS011;33676;51.006;17.180;2023-04-25T13:57:43;4.10;;;2.10;;
47912;SDS011;33676;51.006;17.180;2023-04-25T14:00:15;3.10;;;2.30;;
47912;SDS011;33676;51.006;17.180;2023-04-25T14:02:48;1.40;;;1.30;;
47912;SDS011;33676;51.006;17.180;2023-04-25T14:05:21;2.60;;;1.90;;
47912;SDS011;33676;51.006;17.180;2023-04-25T14:08:22;2.10;;;1.80;;
47912;SDS011;33676;51.006;17.180;2023-04-25T14:10:52;2.10;;;1.90;;
47912;SDS011;33676;51.006;17.180;2023-04-25T14:13:22;2.20;;;2.00;;
47912;SDS011;33676;51.006;17.180;2023-04-25T14:15:54;1.80;;;1.70;;
47912;SDS011;33676;51.006;17.180;2023-04-25T14:18:23;3.00;;;1.90;;
47912;SDS011;33676;51.006;17.180;2023-04-25T14:20:52;3.20;;;1.70;;
47912;SDS011;33676;51.006;17.180;2023-04-25T14:23:21;1.70;;;1.60;;
47912;SDS011;33676;51.006;17.180;2023-04-25T14:25:50;1.70;;;1.60;;
47912;SDS011;33676;51.006;17.180;2023-04-25T14:28:19;1.80;;;1.70;;
47912;SDS011;33676;51.006;17.180;2023-04-25T14:30:48;3.20;;;2.00;;
47912;SDS011;33676;51.006;17.180;2023-04-25T14:33:17;2.10;;;1.80;;
47912;SDS011;33676;51.006;17.180;2023-04-25T14:35:46;3.30;;;1.90;;
47912;SDS011;33676;51.006;17.180;2023-04-25T14:38:15;2.00;;;1.90;;
47912;SDS011;33676;51.006;17.180;2023-04-25T14:40:49;1.70;;;1.40;;
47912;SDS011;33676;51.006;17.180;2023-04-25T14:43:19;1.70;;;1.50;;
47912;SDS011;33676;51.006;17.180;2023-04-25T14:45:49;1.90;;;1.60;;
47912;SDS011;33676;51.006;17.180;2023-04-25T14:48:19;2.00;;;1.80;;
47912;SDS011;33676;51.006;17.180;2023-04-25T14:50:48;3.00;;;1.50;;
47912;SDS011;33676;51.006;17.180;2023-04-25T14:53:16;3.60;;;1.50;;
47912;SDS011;33676;51.006;17.180;2023-04-25T14:55:45;1.50;;;1.20;;
47912;SDS011;33676;51.006;17.180;2023-04-25T14:58:13;1.70;;;1.50;;
47912;SDS011;33676;51.006;17.180;2023-04-25T15:00:43;3.70;;;1.70;;